Caribe Alliance — WDC9383 — position and weather

sailwx.info

Track history (hours):
 
Tides and Currents Weather Stations Pressure Air Temp Water Temp Dewpoint Dewpoint Depression Visibility Wind Speed Wind Dir Waves Ship Positions

Caribe Alliance

Owner: Gulf Caribe Maritime, Redondo Beach, CA. More information available from US FCC via Universal Licensing System and Coast Guard Vessel Documentation Center.

Last reported at 2014-Oct-30 17:28 UTC. Time now 2014-Oct-30 22:53 UTC.
Position N 33°51' W 118°24'.

Length 19 m; draft 3.3 m.

Type: Port tender. MMSI: 367101530.

Date/timePositionNaut miles runAvg speedWind from/ knotsBaromVisibWave heightAir tempDewpointWater temp
2014-Oct-30 17:28N 33°51' W 118°24'2 2.2
2014-Oct-30 16:33N 33°52' W 118°25'3 2.8
2014-Oct-30 15:33N 33°54' W 118°27'0 0.2
2014-Oct-30 13:18N 33°54' W 118°27'0 0.0
2014-Oct-30 12:32N 33°54' W 118°27'0 0.0
2014-Oct-30 11:29N 33°54' W 118°27'0 0.0
2014-Oct-30 10:32N 33°54' W 118°27'0 0.0
2014-Oct-30 09:32N 33°54' W 118°27'0 0.0
2014-Oct-30 08:32N 33°54' W 118°27'0 0.0
2014-Oct-30 07:29N 33°54' W 118°27'0 0.0
2014-Oct-30 06:26N 33°54' W 118°27'0 0.0
2014-Oct-30 05:32N 33°54' W 118°27'0 0.0
2014-Oct-30 04:23N 33°54' W 118°27'0 0.0
2014-Oct-30 03:20N 33°54' W 118°27'0 0.0
2014-Oct-30 02:32N 33°54' W 118°27'0 0.0
2014-Oct-30 01:32N 33°54' W 118°27'0 0.0
2014-Oct-30 00:32N 33°54' W 118°27'0 0.0
2014-Oct-29 23:29N 33°54' W 118°27'0 0.0
2014-Oct-29 22:32N 33°54' W 118°27'0 0.3
2014-Oct-29 21:32N 33°54' W 118°27'0 0.1
2014-Oct-29 20:29N 33°54' W 118°27'0 0.3
2014-Oct-29 19:32N 33°54' W 118°27'2 2.2
2014-Oct-29 18:31N 33°52' W 118°28'4 4.6
2014-Oct-29 17:33N 33°51' W 118°24'0 0.0
2014-Oct-29 16:03N 33°51' W 118°24'1 0.0
2014-Oct-29 02:33N 33°51' W 118°24'3 2.5
2014-Oct-29 01:33N 33°52' W 118°26'3 0.7
2014-Oct-28 21:19N 33°51' W 118°24'0 0.0
2014-Oct-28 20:21N 33°51' W 118°24'0 0.0
2014-Oct-28 19:31N 33°51' W 118°24'0 0.0
2014-Oct-28 18:31N 33°51' W 118°24'0 0.0
2014-Oct-28 17:33N 33°51' W 118°24'0 0.0
2014-Oct-28 16:32N 33°51' W 118°24'0 0.0
2014-Oct-28 15:13N 33°51' W 118°24'0 0.0
2014-Oct-28 14:33N 33°51' W 118°24'0 0.0
2014-Oct-28 08:26N 33°51' W 118°24'0 0.0
2014-Oct-27 19:21N 33°51' W 118°24'0 0.0
2014-Oct-27 18:32N 33°51' W 118°24'0 0.0
2014-Oct-27 17:23N 33°51' W 118°24'0 0.0
2014-Oct-27 16:03N 33°51' W 118°24'0 0.0
2014-Oct-27 15:32N 33°51' W 118°24'0 0.0
2014-Oct-27 14:14N 33°51' W 118°24'0 0.0
2014-Oct-27 10:11N 33°51' W 118°24'0 0.0
2014-Oct-27 09:27N 33°51' W 118°24'0 0.0
2014-Oct-27 08:20N 33°51' W 118°24'0 0.0
2014-Oct-27 07:29N 33°51' W 118°24'0 0.0
2014-Oct-27 06:32N 33°51' W 118°24'0 0.0
2014-Oct-27 05:26N 33°51' W 118°24'0 0.0
2014-Oct-26 19:33N 33°51' W 118°24'0 0.0
2014-Oct-26 18:29N 33°51' W 118°24'0 0.0
2014-Oct-26 17:31N 33°51' W 118°24'0 0.0
2014-Oct-26 16:33N 33°51' W 118°24'0 0.0
2014-Oct-26 15:33N 33°51' W 118°24'0 0.0
2014-Oct-25 17:33N 33°51' W 118°24'0 0.0
2014-Oct-25 16:32N 33°51' W 118°24'0 0.0
2014-Oct-25 15:09N 33°51' W 118°24'0 0.0
2014-Oct-25 04:10N 33°51' W 118°24'0 0.0
2014-Oct-24 17:07N 33°51' W 118°24'0 0.0
2014-Oct-24 16:33N 33°51' W 118°24'0 0.0
2014-Oct-24 15:33N 33°51' W 118°24'0 0.0
2014-Oct-24 14:32N 33°51' W 118°24'0 0.0
2014-Oct-24 13:34N 33°51' W 118°24'0 0.0
2014-Oct-24 12:32N 33°51' W 118°24'0 0.0
2014-Oct-24 10:24N 33°51' W 118°24'0 0.0
2014-Oct-24 09:33N 33°51' W 118°24'5 5.3
2014-Oct-24 08:33N 33°55' W 118°27'0 0.2
2014-Oct-24 07:33N 33°55' W 118°27'0 0.0
2014-Oct-24 06:34N 33°55' W 118°27'0 0.0
2014-Oct-24 05:33N 33°55' W 118°27'0 0.0
2014-Oct-24 04:33N 33°55' W 118°27'0 0.0
2014-Oct-24 03:34N 33°55' W 118°27'0 0.0
2014-Oct-24 02:31N 33°55' W 118°27'0 0.0
2014-Oct-24 01:31N 33°55' W 118°27'0 0.0
2014-Oct-24 00:34N 33°55' W 118°27'0 0.0
2014-Oct-23 23:34N 33°55' W 118°27'0 0.0
2014-Oct-23 22:33N 33°55' W 118°27'0 0.0
2014-Oct-23 21:33N 33°55' W 118°27'0 0.0
2014-Oct-23 20:33N 33°55' W 118°27'0 0.0
2014-Oct-23 19:33N 33°55' W 118°27'0 0.0
2014-Oct-23 18:34N 33°55' W 118°27'0 0.1
2014-Oct-23 17:33N 33°55' W 118°27'0 0.2
2014-Oct-23 16:32N 33°55' W 118°27'4 1.9
2014-Oct-23 14:33N 33°51' W 118°25'2 1.6
2014-Oct-23 13:32N 33°51' W 118°24'0 0.0
2014-Oct-23 09:05N 33°51' W 118°24'5 8.9
2014-Oct-23 08:33N 33°54' W 118°27'1 0.7
2014-Oct-23 07:33N 33°55' W 118°27'0 0.1
2014-Oct-23 06:33N 33°55' W 118°27'0 0.4
2014-Oct-23 05:33N 33°55' W 118°27'0 0.0
2014-Oct-23 04:34N 33°55' W 118°27'0 0.0
2014-Oct-23 03:33N 33°55' W 118°27'0 0.0
2014-Oct-23 02:33N 33°55' W 118°27'0 0.0
2014-Oct-23 01:32N 33°55' W 118°27'0 0.0
2014-Oct-23 00:33N 33°55' W 118°27'0 0.0
2014-Oct-22 23:33N 33°55' W 118°27'0 0.0
2014-Oct-22 22:32N 33°55' W 118°27'0 0.0
2014-Oct-22 21:32N 33°55' W 118°27'0 0.0
2014-Oct-22 20:32N 33°55' W 118°27'0 0.0
2014-Oct-22 19:31N 33°55' W 118°27'0 0.0
2014-Oct-22 18:33N 33°55' W 118°27'0 0.0
2014-Oct-22 17:33N 33°55' W 118°27'0 0.0
2014-Oct-22 16:33N 33°55' W 118°27'0 0.0
2014-Oct-22 15:33N 33°55' W 118°27'0 0.0
2014-Oct-22 14:33N 33°55' W 118°27'0 0.1
2014-Oct-22 13:33N 33°55' W 118°27'0 0.1
2014-Oct-22 12:33N 33°55' W 118°27'0 0.0
2014-Oct-22 11:33N 33°55' W 118°27'0 0.0
2014-Oct-22 10:33N 33°55' W 118°27'0 0.0
2014-Oct-22 09:33N 33°55' W 118°27'0 0.1
2014-Oct-22 08:33N 33°55' W 118°27'0 0.0
2014-Oct-22 07:33N 33°55' W 118°27'0 0.0
2014-Oct-22 06:33N 33°55' W 118°27'0 0.0
2014-Oct-22 05:33N 33°55' W 118°27'0 0.0
2014-Oct-22 04:33N 33°55' W 118°27'0 0.0
2014-Oct-22 03:33N 33°55' W 118°27'0 0.0
2014-Oct-22 02:34N 33°55' W 118°27'0 0.0
2014-Oct-22 01:33N 33°55' W 118°27'0 0.4
2014-Oct-22 00:33N 33°55' W 118°27'0 0.2
2014-Oct-21 23:33N 33°55' W 118°27'0 0.0
2014-Oct-21 22:33N 33°55' W 118°27'3 3.4
2014-Oct-21 21:33N 33°52' W 118°25'1 1.0
2014-Oct-21 20:33N 33°51' W 118°24'4 4.0
2014-Oct-21 19:33N 33°54' W 118°27'0 0.2
2014-Oct-21 18:33N 33°54' W 118°27'0 0.2
2014-Oct-21 17:33N 33°54' W 118°27'0 0.2
2014-Oct-21 16:34N 33°54' W 118°27'0 0.0
2014-Oct-21 15:33N 33°54' W 118°27'0 0.0
2014-Oct-21 14:33N 33°54' W 118°27'0 0.0
2014-Oct-21 13:33N 33°54' W 118°27'0 0.0
2014-Oct-21 12:33N 33°54' W 118°27'0 0.0
2014-Oct-21 11:33N 33°54' W 118°27'0 0.0
2014-Oct-21 10:33N 33°54' W 118°27'0 0.0
2014-Oct-21 09:33N 33°54' W 118°27'0 0.0
2014-Oct-21 08:33N 33°54' W 118°27'0 0.0
2014-Oct-21 07:33N 33°54' W 118°27'0 0.0
2014-Oct-21 06:34N 33°54' W 118°27'0 0.0
2014-Oct-21 05:33N 33°54' W 118°27'0 0.0
2014-Oct-21 04:33N 33°54' W 118°27'0 0.0
2014-Oct-21 03:33N 33°54' W 118°27'0 0.0
2014-Oct-21 02:33N 33°54' W 118°27'0 0.0
2014-Oct-21 01:33N 33°54' W 118°27'0 0.0
2014-Oct-21 00:33N 33°54' W 118°27'0 0.0
2014-Oct-20 23:33N 33°54' W 118°27'0 0.0
2014-Oct-20 22:32N 33°54' W 118°27'0 0.0
2014-Oct-20 21:32N 33°54' W 118°27'0 0.0
2014-Oct-20 20:33N 33°54' W 118°27'0 0.0
2014-Oct-20 19:33N 33°54' W 118°27'0 0.0
2014-Oct-20 18:33N 33°54' W 118°27'0 0.0
2014-Oct-20 17:33N 33°54' W 118°27'  
Track history (hours):
 
Tides and Currents Weather Stations Pressure Air Temp Water Temp Dewpoint Dewpoint Depression Visibility Wind Speed Wind Dir Waves Ship Positions

Caribe Alliance

Owner: Gulf Caribe Maritime, Redondo Beach, CA. More information available from US FCC via Universal Licensing System and Coast Guard Vessel Documentation Center.

Last reported at 2014-Oct-30 17:28 UTC. Time now 2014-Oct-30 22:53 UTC.
Position N 33°51' W 118°24'.

Length 19 m; draft 3.3 m.

Type: Port tender. MMSI: 367101530.

Date/timePositionNaut miles runAvg speedWind from/ knotsBaromVisibWave heightAir tempDewpointWater temp
2014-Oct-30 17:28N 33°51' W 118°24'2 2.2
2014-Oct-30 16:33N 33°52' W 118°25'3 2.8
2014-Oct-30 15:33N 33°54' W 118°27'0 0.2
2014-Oct-30 13:18N 33°54' W 118°27'0 0.0
2014-Oct-30 12:32N 33°54' W 118°27'0 0.0
2014-Oct-30 11:29N 33°54' W 118°27'0 0.0
2014-Oct-30 10:32N 33°54' W 118°27'0 0.0
2014-Oct-30 09:32N 33°54' W 118°27'0 0.0
2014-Oct-30 08:32N 33°54' W 118°27'0 0.0
2014-Oct-30 07:29N 33°54' W 118°27'0 0.0
2014-Oct-30 06:26N 33°54' W 118°27'0 0.0
2014-Oct-30 05:32N 33°54' W 118°27'0 0.0
2014-Oct-30 04:23N 33°54' W 118°27'0 0.0
2014-Oct-30 03:20N 33°54' W 118°27'0 0.0
2014-Oct-30 02:32N 33°54' W 118°27'0 0.0
2014-Oct-30 01:32N 33°54' W 118°27'0 0.0
2014-Oct-30 00:32N 33°54' W 118°27'0 0.0
2014-Oct-29 23:29N 33°54' W 118°27'0 0.0
2014-Oct-29 22:32N 33°54' W 118°27'0 0.3
2014-Oct-29 21:32N 33°54' W 118°27'0 0.1
2014-Oct-29 20:29N 33°54' W 118°27'0 0.3
2014-Oct-29 19:32N 33°54' W 118°27'2 2.2
2014-Oct-29 18:31N 33°52' W 118°28'4 4.6
2014-Oct-29 17:33N 33°51' W 118°24'0 0.0
2014-Oct-29 16:03N 33°51' W 118°24'1 0.0
2014-Oct-29 02:33N 33°51' W 118°24'3 2.5
2014-Oct-29 01:33N 33°52' W 118°26'3 0.7
2014-Oct-28 21:19N 33°51' W 118°24'0 0.0
2014-Oct-28 20:21N 33°51' W 118°24'0 0.0
2014-Oct-28 19:31N 33°51' W 118°24'0 0.0
2014-Oct-28 18:31N 33°51' W 118°24'0 0.0
2014-Oct-28 17:33N 33°51' W 118°24'0 0.0
2014-Oct-28 16:32N 33°51' W 118°24'0 0.0
2014-Oct-28 15:13N 33°51' W 118°24'0 0.0
2014-Oct-28 14:33N 33°51' W 118°24'0 0.0
2014-Oct-28 08:26N 33°51' W 118°24'0 0.0
2014-Oct-27 19:21N 33°51' W 118°24'0 0.0
2014-Oct-27 18:32N 33°51' W 118°24'0 0.0
2014-Oct-27 17:23N 33°51' W 118°24'0 0.0
2014-Oct-27 16:03N 33°51' W 118°24'0 0.0
2014-Oct-27 15:32N 33°51' W 118°24'0 0.0
2014-Oct-27 14:14N 33°51' W 118°24'0 0.0
2014-Oct-27 10:11N 33°51' W 118°24'0 0.0
2014-Oct-27 09:27N 33°51' W 118°24'0 0.0
2014-Oct-27 08:20N 33°51' W 118°24'0 0.0
2014-Oct-27 07:29N 33°51' W 118°24'0 0.0
2014-Oct-27 06:32N 33°51' W 118°24'0 0.0
2014-Oct-27 05:26N 33°51' W 118°24'0 0.0
2014-Oct-26 19:33N 33°51' W 118°24'0 0.0
2014-Oct-26 18:29N 33°51' W 118°24'0 0.0
2014-Oct-26 17:31N 33°51' W 118°24'0 0.0
2014-Oct-26 16:33N 33°51' W 118°24'0 0.0
2014-Oct-26 15:33N 33°51' W 118°24'0 0.0
2014-Oct-25 17:33N 33°51' W 118°24'0 0.0
2014-Oct-25 16:32N 33°51' W 118°24'0 0.0
2014-Oct-25 15:09N 33°51' W 118°24'0 0.0
2014-Oct-25 04:10N 33°51' W 118°24'0 0.0
2014-Oct-24 17:07N 33°51' W 118°24'0 0.0
2014-Oct-24 16:33N 33°51' W 118°24'0 0.0
2014-Oct-24 15:33N 33°51' W 118°24'0 0.0
2014-Oct-24 14:32N 33°51' W 118°24'0 0.0
2014-Oct-24 13:34N 33°51' W 118°24'0 0.0
2014-Oct-24 12:32N 33°51' W 118°24'0 0.0
2014-Oct-24 10:24N 33°51' W 118°24'0 0.0
2014-Oct-24 09:33N 33°51' W 118°24'5 5.3
2014-Oct-24 08:33N 33°55' W 118°27'0 0.2
2014-Oct-24 07:33N 33°55' W 118°27'0 0.0
2014-Oct-24 06:34N 33°55' W 118°27'0 0.0
2014-Oct-24 05:33N 33°55' W 118°27'0 0.0
2014-Oct-24 04:33N 33°55' W 118°27'0 0.0
2014-Oct-24 03:34N 33°55' W 118°27'0 0.0
2014-Oct-24 02:31N 33°55' W 118°27'0 0.0
2014-Oct-24 01:31N 33°55' W 118°27'0 0.0
2014-Oct-24 00:34N 33°55' W 118°27'0 0.0
2014-Oct-23 23:34N 33°55' W 118°27'0 0.0
2014-Oct-23 22:33N 33°55' W 118°27'0 0.0
2014-Oct-23 21:33N 33°55' W 118°27'0 0.0
2014-Oct-23 20:33N 33°55' W 118°27'0 0.0
2014-Oct-23 19:33N 33°55' W 118°27'0 0.0
2014-Oct-23 18:34N 33°55' W 118°27'0 0.1
2014-Oct-23 17:33N 33°55' W 118°27'0 0.2
2014-Oct-23 16:32N 33°55' W 118°27'4 1.9
2014-Oct-23 14:33N 33°51' W 118°25'2 1.6
2014-Oct-23 13:32N 33°51' W 118°24'0 0.0
2014-Oct-23 09:05N 33°51' W 118°24'5 8.9
2014-Oct-23 08:33N 33°54' W 118°27'1 0.7
2014-Oct-23 07:33N 33°55' W 118°27'0 0.1
2014-Oct-23 06:33N 33°55' W 118°27'0 0.4
2014-Oct-23 05:33N 33°55' W 118°27'0 0.0
2014-Oct-23 04:34N 33°55' W 118°27'0 0.0
2014-Oct-23 03:33N 33°55' W 118°27'0 0.0
2014-Oct-23 02:33N 33°55' W 118°27'0 0.0
2014-Oct-23 01:32N 33°55' W 118°27'0 0.0
2014-Oct-23 00:33N 33°55' W 118°27'0 0.0
2014-Oct-22 23:33N 33°55' W 118°27'0 0.0
2014-Oct-22 22:32N 33°55' W 118°27'0 0.0
2014-Oct-22 21:32N 33°55' W 118°27'0 0.0
2014-Oct-22 20:32N 33°55' W 118°27'0 0.0
2014-Oct-22 19:31N 33°55' W 118°27'0 0.0
2014-Oct-22 18:33N 33°55' W 118°27'0 0.0
2014-Oct-22 17:33N 33°55' W 118°27'0 0.0
2014-Oct-22 16:33N 33°55' W 118°27'0 0.0
2014-Oct-22 15:33N 33°55' W 118°27'0 0.0
2014-Oct-22 14:33N 33°55' W 118°27'0 0.1
2014-Oct-22 13:33N 33°55' W 118°27'0 0.1
2014-Oct-22 12:33N 33°55' W 118°27'0 0.0
2014-Oct-22 11:33N 33°55' W 118°27'0 0.0
2014-Oct-22 10:33N 33°55' W 118°27'0 0.0
2014-Oct-22 09:33N 33°55' W 118°27'0 0.1
2014-Oct-22 08:33N 33°55' W 118°27'0 0.0
2014-Oct-22 07:33N 33°55' W 118°27'0 0.0
2014-Oct-22 06:33N 33°55' W 118°27'0 0.0
2014-Oct-22 05:33N 33°55' W 118°27'0 0.0
2014-Oct-22 04:33N 33°55' W 118°27'0 0.0
2014-Oct-22 03:33N 33°55' W 118°27'0 0.0
2014-Oct-22 02:34N 33°55' W 118°27'0 0.0
2014-Oct-22 01:33N 33°55' W 118°27'0 0.4
2014-Oct-22 00:33N 33°55' W 118°27'0 0.2
2014-Oct-21 23:33N 33°55' W 118°27'0 0.0
2014-Oct-21 22:33N 33°55' W 118°27'3 3.4
2014-Oct-21 21:33N 33°52' W 118°25'1 1.0
2014-Oct-21 20:33N 33°51' W 118°24'4 4.0
2014-Oct-21 19:33N 33°54' W 118°27'0 0.2
2014-Oct-21 18:33N 33°54' W 118°27'0 0.2
2014-Oct-21 17:33N 33°54' W 118°27'0 0.2
2014-Oct-21 16:34N 33°54' W 118°27'0 0.0
2014-Oct-21 15:33N 33°54' W 118°27'0 0.0
2014-Oct-21 14:33N 33°54' W 118°27'0 0.0
2014-Oct-21 13:33N 33°54' W 118°27'0 0.0
2014-Oct-21 12:33N 33°54' W 118°27'0 0.0
2014-Oct-21 11:33N 33°54' W 118°27'0 0.0
2014-Oct-21 10:33N 33°54' W 118°27'0 0.0
2014-Oct-21 09:33N 33°54' W 118°27'0 0.0
2014-Oct-21 08:33N 33°54' W 118°27'0 0.0
2014-Oct-21 07:33N 33°54' W 118°27'0 0.0
2014-Oct-21 06:34N 33°54' W 118°27'0 0.0
2014-Oct-21 05:33N 33°54' W 118°27'0 0.0
2014-Oct-21 04:33N 33°54' W 118°27'0 0.0
2014-Oct-21 03:33N 33°54' W 118°27'0 0.0
2014-Oct-21 02:33N 33°54' W 118°27'0 0.0
2014-Oct-21 01:33N 33°54' W 118°27'0 0.0
2014-Oct-21 00:33N 33°54' W 118°27'0 0.0
2014-Oct-20 23:33N 33°54' W 118°27'0 0.0
2014-Oct-20 22:32N 33°54' W 118°27'0 0.0
2014-Oct-20 21:32N 33°54' W 118°27'0 0.0
2014-Oct-20 20:33N 33°54' W 118°27'0 0.0
2014-Oct-20 19:33N 33°54' W 118°27'0 0.0
2014-Oct-20 18:33N 33°54' W 118°27'0 0.0
2014-Oct-20 17:33N 33°54' W 118°27'  

Dump ship's entire track history